Terminal Aerodrome Forecast
Issued by NWS

Home | Current Version | Previous Version | Graphics & Text | Print | Product List | Glossary On
Versions: 1 2 3 4 5 6 7 8 9 10 11 12 13 14
000
FTUS43 KGRB 101000 AAA
TAFATW
TAF AMD
KATW 101034Z 1011/1106 VRB03KT P6SM SKC
     FM101600 16006KT P6SM SCT045
     FM110500 17005KT P6SM SCT050 BKN200=

USA.gov is the U.S. government's official web portal to all federal, state and local government web resources and services.